Time;durP1;ratioP1;P1;durP2;ratioP2;P2;SDS_P1;SDS_P2;PMS_P1;PMS_P2;Temp;Humidity;BMP_temperature;BMP_pressure;BME280_temperature;BME280_humidity;BME280_pressure;Samples;Min_cycle;Max_cycle;Signal;HPM_P1;HPM_P2
2021/12/07 00:01:29;;;;;;;19.70;5.22;;;;;;;2.24;100.00;100460.91;5096173;28;20050;-75
2021/12/07 00:03:54;;;;;;;14.70;4.75;;;;;;;2.21;100.00;100455.91;5077005;28;20036;-75
2021/12/07 00:06:20;;;;;;;12.38;4.95;;;;;;;2.21;100.00;100455.91;5102517;28;20032;-75
2021/12/07 00:08:46;;;;;;;13.50;4.78;;;;;;;2.20;100.00;100462.47;5098559;28;20031;-75
2021/12/07 00:11:12;;;;;;;14.27;4.75;;;;;;;2.20;100.00;100462.47;5099791;28;20392;-75
2021/12/07 00:13:41;;;;;;;16.73;4.97;;;;;;;2.17;100.00;100463.81;5096623;28;20039;-75
2021/12/07 00:16:08;;;;;;;14.50;4.43;;;;;;;2.19;100.00;100471.75;5077760;28;20031;-75
2021/12/07 00:18:34;;;;;;;15.63;4.22;;;;;;;2.17;100.00;100469.28;5098560;28;20077;-75
2021/12/07 00:21:00;;;;;;;15.35;4.47;;;;;;;2.14;100.00;100466.16;5099044;28;20028;-75
2021/12/07 00:23:25;;;;;;;18.15;5.05;;;;;;;2.13;100.00;100472.72;5096402;28;20039;-75
2021/12/07 00:25:51;;;;;;;17.00;4.05;;;;;;;2.12;100.00;100471.06;5089341;28;20028;-75
2021/12/07 00:28:19;;;;;;;16.20;4.68;;;;;;;2.10;100.00;100476.78;5087470;28;20048;-75
2021/12/07 00:30:45;;;;;;;13.45;4.32;;;;;;;2.10;100.00;100478.69;5094236;28;20157;-75
2021/12/07 00:33:17;;;;;;;13.80;3.78;;;;;;;2.07;100.00;100473.69;5095498;28;20059;-75
2021/12/07 00:35:42;;;;;;;16.63;4.35;;;;;;;2.07;100.00;100468.22;5090009;28;20064;-75
2021/12/07 00:38:13;;;;;;;14.23;4.15;;;;;;;2.03;100.00;100467.00;5079149;28;20056;-75
2021/12/07 00:40:39;;;;;;;13.52;3.85;;;;;;;2.00;100.00;100462.84;5093532;28;20399;-75
2021/12/07 00:43:04;;;;;;;15.20;4.30;;;;;;;2.01;100.00;100470.00;5095344;28;20031;-76
2021/12/07 00:45:33;;;;;;;14.23;4.28;;;;;;;1.98;100.00;100470.47;5090713;28;20113;-75
2021/12/07 00:47:58;;;;;;;13.77;3.80;;;;;;;1.95;100.00;100466.31;5096102;28;20044;-75
2021/12/07 00:50:24;;;;;;;12.52;3.80;;;;;;;1.95;100.00;100471.78;5090256;28;20028;-74
2021/12/07 00:52:49;;;;;;;9.82;3.53;;;;;;;1.91;100.00;100469.75;5069193;28;20028;-75
2021/12/07 00:55:18;;;;;;;14.10;3.25;;;;;;;1.89;100.00;100458.19;5099313;28;20027;-75
2021/12/07 00:57:44;;;;;;;9.20;3.70;;;;;;;1.86;100.00;100451.28;5082675;28;20767;-75
2021/12/07 01:00:14;;;;;;;15.10;3.75;;;;;;;1.85;100.00;100452.38;5103708;28;20024;-75
2021/12/07 01:02:39;;;;;;;14.38;3.72;;;;;;;1.82;100.00;100444.63;5104154;28;20585;-75
2021/12/07 01:05:13;;;;;;;12.40;3.13;;;;;;;1.81;100.00;100440.19;5076999;28;20032;-75
2021/12/07 01:26:32;;;;;;;14.02;3.60;;;;;;;1.66;100.00;100439.84;5094316;28;20032;-75
2021/12/07 01:28:57;;;;;;;14.82;3.75;;;;;;;1.63;100.00;100426.66;5098425;28;20048;-75
2021/12/07 01:31:31;;;;;;;11.70;3.20;;;;;;;1.65;100.00;100433.56;5090038;28;20032;-75
2021/12/07 01:34:19;;;;;;;12.95;2.72;;;;;;;1.63;100.00;100429.38;5083951;28;20116;-75
2021/12/07 01:47:54;;;;;;;12.68;2.53;;;;;;;1.54;100.00;100451.63;5100797;28;20038;-75
2021/12/07 01:50:37;;;;;;;13.75;3.53;;;;;;;1.54;100.00;100445.31;5101074;28;20034;-75
2021/12/07 02:01:02;;;;;;;12.10;3.00;;;;;;;1.48;100.00;100427.13;5088084;28;20077;-75
2021/12/07 02:03:28;;;;;;;13.95;3.22;;;;;;;1.46;100.00;100424.59;5081553;28;20380;-75
2021/12/07 02:05:53;;;;;;;12.18;3.03;;;;;;;1.45;100.00;100417.47;5080600;28;20082;-75
2021/12/07 02:08:21;;;;;;;13.50;3.38;;;;;;;1.42;100.00;100417.94;5081345;28;20024;-74
2021/12/07 02:10:46;;;;;;;9.98;2.63;;;;;;;1.41;100.00;100413.53;5088723;28;20111;-75
2021/12/07 02:13:20;;;;;;;14.38;3.10;;;;;;;1.40;100.00;100422.81;5072433;28;20031;-75
2021/12/07 02:15:45;;;;;;;13.30;2.47;;;;;;;1.40;100.00;100430.19;5099204;28;20058;-75
2021/12/07 02:18:11;;;;;;;11.30;2.67;;;;;;;1.39;100.00;100429.34;5081434;28;20031;-75
2021/12/07 02:20:36;;;;;;;16.30;3.08;;;;;;;1.37;100.00;100430.66;5088111;28;20035;-75
2021/12/07 02:23:02;;;;;;;11.60;2.80;;;;;;;1.35;100.00;100422.69;5077760;28;20392;-75
2021/12/07 02:25:28;;;;;;;10.05;2.95;;;;;;;1.38;100.00;100426.84;5091939;28;20028;-75
2021/12/07 02:27:54;;;;;;;13.20;3.13;;;;;;;1.37;100.00;100428.75;5077497;28;20399;-75
2021/12/07 02:30:21;;;;;;;8.60;2.70;;;;;;;1.34;100.00;100419.13;5092972;28;20025;-75
2021/12/07 02:32:51;;;;;;;11.43;3.03;;;;;;;1.33;100.00;100420.16;5053270;28;20127;-75
2021/12/07 02:35:22;;;;;;;16.65;3.08;;;;;;;1.32;100.00;100413.03;5074558;28;20028;-75
2021/12/07 02:37:48;;;;;;;10.50;3.08;;;;;;;1.31;100.00;100394.97;5099074;28;20051;-75
2021/12/07 02:40:13;;;;;;;12.80;2.72;;;;;;;1.30;100.00;100395.19;5077493;28;20036;-75
2021/12/07 02:42:39;;;;;;;12.05;2.55;;;;;;;1.31;100.00;100389.50;5101450;28;20534;-75
2021/12/07 02:45:05;;;;;;;14.77;3.22;;;;;;;1.31;100.00;100389.50;5069861;28;20036;-75
2021/12/07 02:47:34;;;;;;;13.45;3.10;;;;;;;1.30;100.00;100381.50;5107072;28;20035;-75
2021/12/07 02:50:00;;;;;;;10.68;2.83;;;;;;;1.28;100.00;100379.03;5065608;28;20550;-75
2021/12/07 02:52:25;;;;;;;12.52;3.65;;;;;;;1.30;100.00;100373.28;5080163;28;20024;-75
2021/12/07 02:54:51;;;;;;;11.32;2.88;;;;;;;1.28;100.00;100368.06;5106117;28;20046;-75
2021/12/07 02:57:18;;;;;;;13.30;3.28;;;;;;;1.28;100.00;100361.75;5097130;28;20051;-75
2021/12/07 02:59:48;;;;;;;9.93;3.05;;;;;;;1.28;100.00;100364.47;5106512;28;20029;-75
2021/12/07 03:02:15;;;;;;;13.57;2.80;;;;;;;1.27;100.00;100365.56;5058683;28;20040;-75
2021/12/07 03:04:51;;;;;;;15.10;3.53;;;;;;;1.27;100.00;100360.91;5079872;28;20508;-76
2021/12/07 03:07:27;;;;;;;9.48;2.92;;;;;;;1.27;100.00;100360.09;5071749;28;20032;-75
2021/12/07 03:26:12;;;;;;;14.70;3.40;;;;;;;1.21;100.00;100330.94;5069218;28;20526;-75
2021/12/07 03:28:46;;;;;;;11.60;2.67;;;;;;;1.21;100.00;100318.09;5087834;28;20052;-75
2021/12/07 03:31:12;;;;;;;13.32;2.85;;;;;;;1.20;100.00;100321.06;5106280;28;20065;-76
2021/12/07 03:33:38;;;;;;;12.70;3.25;;;;;;;1.20;100.00;100307.38;5074799;28;20059;-75
2021/12/07 03:36:05;;;;;;;16.42;3.25;;;;;;;1.20;100.00;100301.91;5076528;28;20028;-75
2021/12/07 03:38:30;;;;;;;9.20;3.00;;;;;;;1.21;100.00;100292.66;5095519;28;20071;-75
2021/12/07 03:40:56;;;;;;;15.27;2.83;;;;;;;1.19;100.00;100289.31;5079660;28;20028;-75
2021/12/07 03:43:21;;;;;;;10.80;2.95;;;;;;;1.19;100.00;100292.06;5087794;28;20028;-75
2021/12/07 03:45:47;;;;;;;12.75;2.90;;;;;;;1.16;100.00;100290.63;5092599;28;20091;-75
2021/12/07 03:48:13;;;;;;;9.93;3.10;;;;;;;1.16;100.00;100282.41;5092202;28;20078;-75
2021/12/07 03:50:38;;;;;;;14.20;3.60;;;;;;;1.16;100.00;100278.84;5097732;28;20031;-75
2021/12/07 03:53:04;;;;;;;11.00;2.67;;;;;;;1.17;100.00;100277.78;5078387;28;20040;-75
2021/12/07 03:55:30;;;;;;;9.93;2.65;;;;;;;1.18;100.00;100282.19;5093587;28;20023;-75
2021/12/07 03:57:55;;;;;;;9.48;2.92;;;;;;;1.15;100.00;100279.94;5097355;28;20472;-75
2021/12/07 04:00:22;;;;;;;10.20;2.90;;;;;;;1.13;100.00;100284.81;5098637;28;20027;-75
2021/12/07 04:02:50;;;;;;;7.40;2.70;;;;;;;1.13;100.00;100265.66;5068185;28;20107;-75
2021/12/07 04:05:18;;;;;;;11.07;2.70;;;;;;;1.20;100.00;100271.81;5071334;28;20085;-75
2021/12/07 04:07:43;;;;;;;11.32;3.00;;;;;;;1.15;100.00;100256.13;5089851;28;20033;-75
2021/12/07 04:10:10;;;;;;;20.58;9.43;;;;;;;1.12;100.00;100256.63;5097138;28;20086;-75
2021/12/07 04:12:35;;;;;;;20.48;9.25;;;;;;;1.13;100.00;100261.00;5084696;28;20083;-75
2021/12/07 04:15:01;;;;;;;15.98;8.70;;;;;;;1.11;100.00;100244.84;5096536;28;20447;-75
2021/12/07 04:17:26;;;;;;;19.00;7.70;;;;;;;1.14;100.00;100245.44;5103828;28;20114;-75
2021/12/07 04:19:52;;;;;;;17.42;7.18;;;;;;;1.11;100.00;100244.00;5078449;28;20097;-75
2021/12/07 04:22:17;;;;;;;18.17;6.82;;;;;;;1.10;100.00;100234.97;5076570;28;20361;-75
2021/12/07 04:24:43;;;;;;;14.68;6.32;;;;;;;1.09;100.00;100246.97;5076959;28;20047;-75
2021/12/07 04:27:08;;;;;;;23.92;6.90;;;;;;;1.10;100.00;100234.97;5072500;28;20109;-75
2021/12/07 04:29:34;;;;;;;18.25;5.90;;;;;;;1.11;100.00;100236.66;5071119;28;20087;-76
2021/12/07 04:31:59;;;;;;;12.93;5.57;;;;;;;1.10;100.00;100218.56;5097065;28;20028;-75
2021/12/07 04:34:25;;;;;;;18.15;5.82;;;;;;;1.14;100.00;100216.16;5079997;28;20039;-75
2021/12/07 04:36:50;;;;;;;14.10;4.93;;;;;;;1.11;100.00;100201.09;5069332;28;20047;-75
2021/12/07 04:39:16;;;;;;;17.52;5.35;;;;;;;1.11;100.00;100192.88;5104457;28;20028;-75
2021/12/07 04:41:43;;;;;;;18.83;4.90;;;;;;;1.09;100.00;100178.59;5041596;28;20119;-75
2021/12/07 04:44:09;;;;;;;14.90;4.50;;;;;;;1.08;100.00;100157.78;5077627;28;20080;-75
2021/12/07 04:46:46;;;;;;;15.00;4.65;;;;;;;1.11;100.00;100172.88;5086036;28;20476;-75
2021/12/07 04:57:38;;;;;;;16.50;4.82;;;;;;;1.19;100.00;100127.91;5092221;28;20051;-75
2021/12/07 05:00:06;;;;;;;16.13;4.68;;;;;;;1.19;100.00;100127.91;5094622;28;20107;-75
2021/12/07 05:02:32;;;;;;;13.10;4.20;;;;;;;1.20;100.00;100124.97;5102352;28;20024;-76
2021/12/07 05:04:58;;;;;;;16.02;4.47;;;;;;;1.21;100.00;100121.13;5062834;28;20670;-75
2021/12/07 05:07:31;;;;;;;18.90;4.30;;;;;;;1.22;100.00;100122.78;5080499;28;20055;-75
2021/12/07 05:12:37;;;;;;;16.77;4.47;;;;;;;1.29;100.00;100106.25;5079923;28;20109;-75
2021/12/07 05:15:15;;;;;;;15.07;4.80;;;;;;;1.30;100.00;100095.06;5095442;28;20055;-75
2021/12/07 05:18:01;;;;;;;15.00;4.50;;;;;;;1.32;100.00;100078.41;5101292;28;20040;-75
2021/12/07 05:39:27;;;;;;;20.63;5.45;;;;;;;1.60;100.00;100022.81;5064040;28;20039;-75
2021/12/07 05:41:52;;;;;;;20.65;5.50;;;;;;;1.63;100.00;100018.75;5072080;28;20045;-75
2021/12/07 05:44:18;;;;;;;20.75;5.40;;;;;;;1.67;100.00;100008.97;5089675;28;20532;-75
2021/12/07 05:46:43;;;;;;;19.95;5.40;;;;;;;1.68;100.00;99996.97;5075161;28;20032;-75
2021/12/07 05:49:09;;;;;;;24.08;6.45;;;;;;;1.73;100.00;99999.78;5096389;28;20024;-75
2021/12/07 05:51:34;;;;;;;21.17;5.03;;;;;;;1.75;100.00;99992.13;5088607;28;20031;-75
2021/12/07 05:54:00;;;;;;;15.90;4.90;;;;;;;1.78;100.00;99977.94;5104371;28;20086;-75
2021/12/07 05:56:25;;;;;;;18.10;4.95;;;;;;;1.83;100.00;99975.28;5075988;28;20108;-75
2021/12/07 05:58:51;;;;;;;17.45;4.90;;;;;;;1.86;100.00;99968.50;5082411;28;20024;-75
2021/12/07 06:01:16;;;;;;;19.42;4.72;;;;;;;1.88;100.00;99961.69;5105306;28;20024;-75
2021/12/07 06:03:42;;;;;;;18.88;4.55;;;;;;;1.91;100.00;99961.19;5091331;28;20050;-75
2021/12/07 06:06:07;;;;;;;16.88;3.58;;;;;;;1.93;100.00;99955.47;5070063;28;20032;-75
2021/12/07 06:08:32;;;;;;;14.50;4.00;;;;;;;1.95;100.00;99951.41;5083591;28;20083;-75
2021/12/07 06:10:58;;;;;;;16.08;4.10;;;;;;;1.98;100.00;99945.41;5097863;28;20435;-75
2021/12/07 06:13:24;;;;;;;17.50;4.07;;;;;;;2.03;100.00;99924.66;5081266;28;20028;-76
2021/12/07 06:15:49;;;;;;;18.35;3.80;;;;;;;2.03;100.00;99913.69;5061164;28;20047;-75
2021/12/07 06:18:15;;;;;;;12.65;3.38;;;;;;;2.06;100.00;99907.69;5061782;28;20035;-75
2021/12/07 06:20:41;;;;;;;15.95;4.65;;;;;;;2.07;100.00;99906.63;5057415;28;20028;-75
2021/12/07 06:23:09;;;;;;;13.30;3.50;;;;;;;2.09;100.00;99916.28;5093840;28;20055;-75
2021/12/07 06:25:34;;;;;;;13.38;3.60;;;;;;;2.11;100.00;99911.34;5106497;28;20042;-75
2021/12/07 06:28:00;;;;;;;14.65;3.80;;;;;;;2.13;100.00;99909.19;5085459;28;20048;-75
2021/12/07 06:30:25;;;;;;;16.48;3.65;;;;;;;2.15;100.00;99896.06;5100973;28;20031;-76
2021/12/07 06:32:51;;;;;;;16.85;3.20;;;;;;;2.16;100.00;99892.25;5100481;28;20484;-75
2021/12/07 06:35:16;;;;;;;18.35;4.28;;;;;;;2.16;100.00;99894.16;5099964;28;20020;-76
2021/12/07 06:37:42;;;;;;;14.13;3.65;;;;;;;2.19;100.00;99888.16;5071358;28;20036;-75
2021/12/07 06:40:10;;;;;;;9.27;2.95;;;;;;;2.19;100.00;99879.94;5080423;28;20107;-75
2021/12/07 06:42:38;;;;;;;16.13;3.63;;;;;;;2.21;100.00;99872.31;5078950;28;20024;-75
2021/12/07 06:45:07;;;;;;;14.98;3.70;;;;;;;2.21;100.00;99869.56;5063287;28;20370;-75
2021/12/07 06:47:33;;;;;;;14.88;3.60;;;;;;;2.21;100.00;99856.69;5074642;28;20034;-75
2021/12/07 06:49:59;;;;;;;18.73;3.92;;;;;;;2.22;100.00;99852.03;5087748;28;20028;-75
2021/12/07 06:52:24;;;;;;;17.58;3.45;;;;;;;2.22;100.00;99846.56;5094567;28;20039;-75
2021/12/07 06:54:50;;;;;;;17.33;3.42;;;;;;;2.23;100.00;99837.28;5085174;28;20043;-75
2021/12/07 06:57:15;;;;;;;14.85;3.38;;;;;;;2.24;100.00;99822.47;5085788;28;20028;-75
2021/12/07 06:59:41;;;;;;;18.70;3.60;;;;;;;2.24;100.00;99817.81;5086085;28;20028;-75
2021/12/07 07:02:07;;;;;;;13.13;2.80;;;;;;;2.26;100.00;99814.00;5090320;28;20032;-75
2021/12/07 07:04:32;;;;;;;17.13;4.03;;;;;;;2.25;100.00;99802.22;5105009;28;20059;-75
2021/12/07 07:06:58;;;;;;;14.38;3.38;;;;;;;2.25;100.00;99802.22;5081104;28;20024;-75
2021/12/07 07:09:23;;;;;;;18.27;3.30;;;;;;;2.29;100.00;99797.06;5080423;28;20053;-75
2021/12/07 07:11:49;;;;;;;14.43;3.03;;;;;;;2.30;100.00;99788.56;5087225;28;20046;-75
2021/12/07 07:14:16;;;;;;;12.07;2.95;;;;;;;2.31;100.00;99779.25;5074461;28;20036;-75
2021/12/07 07:16:41;;;;;;;20.45;3.70;;;;;;;2.33;100.00;99781.75;5102027;28;20396;-76
2021/12/07 07:19:07;;;;;;;16.55;3.72;;;;;;;2.34;100.00;99762.31;5077078;28;20032;-75
2021/12/07 07:21:32;;;;;;;16.90;3.28;;;;;;;2.34;100.00;99762.31;5090662;28;20034;-75
2021/12/07 07:23:58;;;;;;;22.90;4.10;;;;;;;2.36;100.00;99768.34;5073742;28;20039;-75
2021/12/07 07:26:23;;;;;;;12.00;2.85;;;;;;;2.38;100.00;99766.19;5060937;28;20509;-75
2021/12/07 07:28:49;;;;;;;16.40;3.28;;;;;;;2.40;100.00;99750.31;5093441;28;20048;-75
2021/12/07 07:31:14;;;;;;;18.60;3.47;;;;;;;2.42;100.00;99736.34;5091135;28;20592;-75
2021/12/07 07:33:40;;;;;;;16.67;3.30;;;;;;;2.42;100.00;99722.63;5078335;28;20028;-75
2021/12/07 07:36:06;;;;;;;13.75;3.20;;;;;;;2.47;100.00;99717.22;5079468;28;20056;-75
2021/12/07 07:38:32;;;;;;;13.80;2.63;;;;;;;2.50;100.00;99704.91;5090061;28;20046;-74
2021/12/07 07:40:58;;;;;;;22.48;3.42;;;;;;;2.53;100.00;99694.22;5096939;28;20392;-73
2021/12/07 07:43:24;;;;;;;12.52;2.72;;;;;;;2.58;100.00;99690.72;5071428;28;20032;-74
2021/12/07 07:45:50;;;;;;;18.88;3.17;;;;;;;2.67;100.00;99694.63;5042755;28;20423;-74
2021/12/07 07:48:16;;;;;;;14.90;3.30;;;;;;;2.73;100.00;99706.47;5075255;28;20027;-74
2021/12/07 07:50:42;;;;;;;15.60;3.72;;;;;;;2.78;100.00;99690.06;5083047;28;20485;-74
2021/12/07 07:53:08;;;;;;;17.50;2.95;;;;;;;2.82;100.00;99672.00;5078488;28;20078;-74
2021/12/07 07:55:35;;;;;;;23.42;3.47;;;;;;;2.85;100.00;99672.28;5083339;28;20391;-74
2021/12/07 07:58:02;;;;;;;14.50;3.15;;;;;;;2.88;100.00;99658.03;5088594;28;20503;-74
2021/12/07 08:00:28;;;;;;;19.17;3.55;;;;;;;2.93;100.00;99653.69;5062539;28;20031;-74
2021/12/07 08:02:53;;;;;;;23.50;2.95;;;;;;;2.98;100.00;99650.97;5101127;28;20028;-74
2021/12/07 08:05:19;;;;;;;26.88;3.55;;;;;;;3.00;100.00;99638.63;5072652;28;20365;-74
2021/12/07 08:07:47;;;;;;;15.02;3.28;;;;;;;3.04;100.00;99642.53;5077493;28;20036;-75
2021/12/07 08:10:13;;;;;;;22.40;3.78;;;;;;;3.06;100.00;99629.34;5057591;28;20056;-75
2021/12/07 08:12:39;;;;;;;16.02;3.20;;;;;;;3.08;100.00;99623.59;5095228;28;20028;-75
2021/12/07 08:15:05;;;;;;;22.25;3.65;;;;;;;3.14;100.00;99617.88;5062164;28;20032;-78
2021/12/07 08:17:31;;;;;;;19.40;3.38;;;;;;;3.13;100.00;99607.16;5052197;28;20062;-81
2021/12/07 08:19:56;;;;;;;31.45;4.53;;;;;;;3.16;100.00;99601.16;5031872;28;20463;-74
2021/12/07 08:22:22;;;;;;;16.05;3.40;;;;;;;3.16;100.00;99598.41;5103550;28;20035;-79
2021/12/07 08:24:50;;;;;;;28.83;4.10;;;;;;;3.22;100.00;99593.75;5046103;28;20439;-78
2021/12/07 08:27:16;;;;;;;21.30;4.05;;;;;;;3.24;100.00;99589.66;5055016;28;20036;-74
2021/12/07 08:29:41;;;;;;;29.48;4.20;;;;;;;3.28;100.00;99584.44;5063792;28;20047;-75
2021/12/07 08:32:07;;;;;;;19.50;3.83;;;;;;;3.31;100.00;99568.25;5092953;28;20039;-74
2021/12/07 08:34:32;;;;;;;28.77;4.65;;;;;;;3.33;100.00;99554.28;5103704;28;20064;-75
2021/12/07 08:36:58;;;;;;;32.58;5.00;;;;;;;3.35;100.00;99552.91;5095087;28;20039;-74
2021/12/07 08:39:23;;;;;;;21.65;4.10;;;;;;;3.38;100.00;99545.25;5079261;28;20037;-75
2021/12/07 08:41:49;;;;;;;21.98;4.15;;;;;;;3.42;100.00;99543.59;5077930;28;20028;-75
2021/12/07 08:44:14;;;;;;;23.00;4.10;;;;;;;3.45;100.00;99537.56;5054490;28;20032;-75
2021/12/07 08:46:40;;;;;;;19.88;4.00;;;;;;;3.52;100.00;99529.91;5059058;28;20638;-76
2021/12/07 08:49:05;;;;;;;24.05;4.18;;;;;;;3.55;100.00;99521.94;5106393;28;20039;-75
2021/12/07 08:51:31;;;;;;;36.08;6.28;;;;;;;3.62;100.00;99513.44;5098935;28;20052;-75
2021/12/07 08:54:07;;;;;;;37.55;5.45;;;;;;;3.65;100.00;99506.56;5076495;28;20059;-75
2021/12/07 09:02:00;;;;;;;32.08;4.85;;;;;;;3.78;100.00;99493.13;5079142;28;20038;-75
2021/12/07 09:04:25;;;;;;;42.65;6.65;;;;;;;3.83;100.00;99486.00;5092128;28;20019;-75
2021/12/07 09:06:51;;;;;;;38.33;5.57;;;;;;;3.87;100.00;99476.09;5094566;28;20032;-75
2021/12/07 09:09:16;;;;;;;38.95;5.78;;;;;;;3.91;100.00;99466.22;5074568;28;20055;-75
2021/12/07 09:11:42;;;;;;;35.63;5.57;;;;;;;3.96;100.00;99441.50;5078532;28;20554;-75
2021/12/07 09:14:14;;;;;;;36.35;6.75;;;;;;;3.99;100.00;99440.94;5084688;28;20024;-75
2021/12/07 09:16:39;;;;;;;34.22;6.00;;;;;;;4.02;100.00;99440.41;5055992;28;20507;-75
2021/12/07 09:19:05;;;;;;;32.50;5.95;;;;;;;4.05;100.00;99417.88;5073244;28;20032;-75
2021/12/07 09:21:30;;;;;;;34.97;6.93;;;;;;;4.10;100.00;99419.78;5082747;28;20055;-75
2021/12/07 09:23:56;;;;;;;33.85;6.20;;;;;;;4.11;100.00;99414.00;5075661;28;20612;-75
2021/12/07 09:26:21;;;;;;;33.58;6.90;;;;;;;4.16;100.00;99394.75;5066997;28;20481;-75
2021/12/07 09:28:47;;;;;;;38.63;6.72;;;;;;;4.20;100.00;99373.84;5071277;28;20063;-75
2021/12/07 09:31:12;;;;;;;36.25;7.18;;;;;;;4.25;100.00;99371.06;5091190;28;20027;-75
2021/12/07 09:33:40;;;;;;;40.03;7.00;;;;;;;4.28;100.00;99355.97;5058937;28;20028;-75
2021/12/07 09:36:06;;;;;;;36.30;8.32;;;;;;;4.33;100.00;99346.88;5069749;28;20028;-74
2021/12/07 09:38:32;;;;;;;36.22;7.80;;;;;;;4.41;100.00;99329.81;5060092;28;20054;-75
2021/12/07 09:40:57;;;;;;;40.42;7.97;;;;;;;4.48;100.00;99313.81;5084906;28;20024;-76
2021/12/07 09:43:23;;;;;;;42.78;8.73;;;;;;;4.54;100.00;99322.84;5105192;28;20032;-75
2021/12/07 09:45:48;;;;;;;38.55;9.38;;;;;;;4.60;100.00;99317.06;5075192;28;20040;-75
2021/12/07 09:48:15;;;;;;;40.83;9.18;;;;;;;4.65;100.00;99300.53;5083346;28;20035;-75
2021/12/07 09:50:43;;;;;;;39.45;8.55;;;;;;;4.69;100.00;99301.59;5105769;28;20105;-75
2021/12/07 09:53:09;;;;;;;40.92;9.65;;;;;;;4.77;100.00;99302.09;5083380;28;20596;-75
2021/12/07 09:55:35;;;;;;;32.60;8.18;;;;;;;4.83;100.00;99284.44;5084322;28;20034;-75
2021/12/07 09:58:01;;;;;;;37.15;9.32;;;;;;;4.87;100.00;99269.81;5080354;28;20040;-75
2021/12/07 10:00:26;;;;;;;47.90;8.40;;;;;;;4.92;100.00;99261.53;5069677;28;20034;-75
2021/12/07 10:02:52;;;;;;;40.22;9.70;;;;;;;4.99;100.00;99246.66;5083792;28;20024;-75
2021/12/07 10:05:19;;;;;;;40.28;8.25;;;;;;;5.00;100.00;99238.09;5078862;28;20058;-75
2021/12/07 10:07:45;;;;;;;40.15;8.65;;;;;;;5.07;100.00;99235.00;5080415;28;20027;-75
2021/12/07 10:10:20;;;;;;;43.63;7.88;;;;;;;5.11;100.00;99228.63;5097804;28;20559;-76
2021/12/07 10:12:46;;;;;;;34.15;8.63;;;;;;;5.15;100.00;99215.09;5105790;28;20058;-76
2021/12/07 10:15:11;;;;;;;40.67;9.52;;;;;;;5.22;100.00;99203.78;5086870;28;20049;-75
2021/12/07 10:17:37;;;;;;;47.45;8.82;;;;;;;5.23;100.00;99199.91;5080384;28;20035;-76
2021/12/07 10:20:22;;;;;;;42.40;10.18;;;;;;;5.30;100.00;99167.34;5062009;28;20031;-75
2021/12/07 10:22:50;;;;;;;47.13;9.77;;;;;;;5.34;100.00;99158.19;5072277;28;20093;-75
2021/12/07 10:25:26;;;;;;;43.72;9.98;;;;;;;5.40;100.00;99145.19;5077219;28;20046;-76
2021/12/07 10:27:52;;;;;;;48.20;10.40;;;;;;;5.44;100.00;99142.69;5053264;28;20408;-76
2021/12/07 10:30:19;;;;;;;40.05;9.05;;;;;;;5.46;100.00;99118.41;5080518;28;20032;-76
2021/12/07 10:33:03;;;;;;;45.10;9.88;;;;;;;5.48;100.00;99100.50;5062943;28;20040;-75
2021/12/07 10:35:30;;;;;;;45.08;9.32;;;;;;;5.54;100.00;99102.09;5088310;28;20049;-76
2021/12/07 10:38:13;;;;;;;48.78;10.85;;;;;;;5.57;100.00;99084.13;5086030;28;20129;-76
2021/12/07 10:40:58;;;;;;;43.40;11.07;;;;;;;5.61;100.00;99085.19;5062386;28;20444;-72
2021/12/07 10:43:50;;;;;;;54.33;9.90;;;;;;;5.65;100.00;99069.69;5098717;28;20042;-71
2021/12/07 10:46:24;;;;;;;50.85;10.90;;;;;;;5.70;100.00;99055.03;5099333;28;20032;-72
2021/12/07 10:48:49;;;;;;;47.67;10.57;;;;;;;5.74;100.00;99056.06;5098852;28;20036;-72
2021/12/07 10:51:15;;;;;;;44.80;9.15;;;;;;;5.76;100.00;99035.38;5108871;28;20044;-71
2021/12/07 10:54:27;;;;;;;39.55;10.07;;;;;;;5.82;100.00;99025.94;5069161;28;20046;-78
2021/12/07 10:57:29;;;;;;;47.47;8.52;;;;;;;5.87;100.00;98991.97;5065792;28;20036;-78
2021/12/07 11:01:00;;;;;;;44.15;8.13;;;;;;;5.93;100.00;98988.03;5061015;28;20039;-78
2021/12/07 11:04:02;;;;;;;;;;;;;;;;;;;;;
2021/12/07 11:07:20;;;;;;;44.95;8.85;;;;;;;6.04;100.00;98948.19;5022466;28;19916;-78
2021/12/07 11:10:08;;;;;;;48.33;8.13;;;;;;;6.06;100.00;98941.56;5072365;28;20059;-78
2021/12/07 11:15:53;;;;;;;57.80;8.95;;;;;;;6.21;100.00;98919.22;5012212;28;20549;-74
2021/12/07 11:18:27;;;;;;;53.72;9.55;;;;;;;6.22;100.00;98907.88;5035246;28;20041;-74
2021/12/07 11:20:54;;;;;;;50.75;8.52;;;;;;;6.23;100.00;98920.53;5036699;28;20029;-74
2021/12/07 11:23:26;;;;;;;46.10;8.32;;;;;;;6.24;100.00;98913.09;5022914;28;20046;-73
2021/12/07 11:29:39;;;;;;;50.00;8.10;;;;;;;6.29;100.00;98907.47;5037425;28;20033;-75
2021/12/07 11:31:40;;;;;;;42.90;7.20;;;;;;;6.39;100.00;98885.22;5014934;28;20053;-75
2021/12/07 11:34:13;;;;;;;56.38;8.18;;;;;;;6.40;100.00;98863.97;5018371;28;20041;-75
2021/12/07 11:36:46;;;;;;;53.08;8.68;;;;;;;6.43;100.00;98855.09;5022950;28;20060;-75
2021/12/07 11:39:49;;;;;;;56.85;9.10;;;;;;;6.44;100.00;98837.44;5023154;28;20048;-75
2021/12/07 11:42:16;;;;;;;;;;;;;;;6.46;100.00;98835.16;4985819;28;20228;-75
2021/12/07 11:45:18;;;;;;;47.35;7.93;;;;;;;6.49;100.00;98829.88;5026960;28;19927;-75
2021/12/07 11:47:48;;;;;;;45.95;7.95;;;;;;;6.49;100.00;98813.34;5020430;28;20029;-75
2021/12/07 11:50:17;;;;;;;50.58;6.80;;;;;;;6.54;100.00;98792.28;5075365;28;20044;-75
2021/12/07 11:52:43;;;;;;;46.55;8.48;;;;;;;6.54;100.00;98793.06;5074472;28;20023;-75
2021/12/07 11:55:09;;;;;;;48.13;7.63;;;;;;;6.57;100.00;98772.34;5074129;28;20523;-74
2021/12/07 11:57:35;;;;;;;43.70;7.47;;;;;;;6.55;100.00;98769.91;5052060;28;20040;-75
2021/12/07 12:00:01;;;;;;;39.55;6.30;;;;;;;6.60;100.00;98755.16;5078799;28;20029;-75
2021/12/07 12:02:26;;;;;;;41.88;6.47;;;;;;;6.63;100.00;98735.22;5042805;28;20031;-75
2021/12/07 12:04:52;;;;;;;34.22;5.63;;;;;;;6.66;100.00;98718.91;5106133;28;20035;-76
2021/12/07 12:07:19;;;;;;;35.63;6.28;;;;;;;6.66;100.00;98729.94;5087113;28;20476;-75
2021/12/07 12:09:50;;;;;;;41.90;6.15;;;;;;;6.70;100.00;98713.56;5070506;28;20119;-75
2021/12/07 12:12:19;;;;;;;33.55;6.30;;;;;;;6.69;100.00;98709.19;5103151;28;20043;-75
2021/12/07 12:14:57;;;;;;;32.50;6.20;;;;;;;6.70;100.00;98699.78;5103646;28;20107;-75
2021/12/07 12:17:50;;;;;;;29.00;5.57;;;;;;;6.73;100.00;98685.34;5093434;28;20040;-75
2021/12/07 12:20:38;;;;;;;22.70;5.15;;;;;;;6.77;100.00;98656.03;5102484;28;20066;-75
2021/12/07 12:23:33;;;;;;;31.85;5.53;;;;;;;6.79;100.00;98656.50;5067297;28;20441;-75
2021/12/07 12:26:02;;;;;;;39.95;5.80;;;;;;;6.81;100.00;98651.47;5097017;28;20066;-75
2021/12/07 12:28:36;;;;;;;24.40;5.65;;;;;;;6.83;100.00;98627.16;5088517;28;20058;-75
2021/12/07 12:31:02;;;;;;;25.63;4.60;;;;;;;6.84;100.00;98626.03;5061326;28;20477;-76
2021/12/07 12:33:45;;;;;;;27.73;5.57;;;;;;;6.86;100.00;98612.72;5079456;28;20073;-75
2021/12/07 12:36:10;;;;;;;24.63;5.33;;;;;;;6.88;100.00;98618.75;5077809;28;20073;-76
2021/12/07 12:38:35;;;;;;;30.05;5.40;;;;;;;6.88;100.00;98616.00;5080086;28;20036;-75
2021/12/07 12:41:06;;;;;;;34.20;5.10;;;;;;;6.91;100.00;98598.81;5076973;28;20058;-75
2021/12/07 12:43:47;;;;;;;26.83;4.70;;;;;;;6.92;100.00;98583.06;5102230;28;20058;-75
2021/12/07 12:46:15;;;;;;;25.42;5.15;;;;;;;6.92;100.00;98600.41;5101798;28;20040;-74
2021/12/07 12:48:48;;;;;;;17.38;4.60;;;;;;;6.92;100.00;98594.09;5083646;28;20473;-75
2021/12/07 12:51:14;;;;;;;19.48;4.72;;;;;;;6.91;100.00;98576.72;5097071;28;20024;-75
2021/12/07 12:53:40;;;;;;;23.30;4.28;;;;;;;6.93;100.00;98566.16;5093792;28;20044;-75
2021/12/07 12:56:08;;;;;;;20.83;3.80;;;;;;;6.94;100.00;98555.97;5068303;28;20028;-75
2021/12/07 12:58:35;;;;;;;21.10;4.60;;;;;;;6.95;100.00;98541.03;5096472;28;20024;-75
2021/12/07 13:01:10;;;;;;;22.35;4.60;;;;;;;6.96;100.00;98533.56;5096117;28;20068;-75
2021/12/07 13:03:55;;;;;;;23.17;4.18;;;;;;;6.98;100.00;98523.03;5096805;28;20411;-75
2021/12/07 13:06:38;;;;;;;19.75;3.40;;;;;;;6.97;100.00;98535.19;5062169;28;20453;-75
2021/12/07 13:09:31;;;;;;;19.38;3.60;;;;;;;6.98;100.00;98531.28;5101936;28;20039;-75